sensor_id;sensor_type;location;lat;lon;timestamp;temperature;humidity
40289;DHT22;28991;52.028;5.526;2023-07-02T00:01:10;24.80;51.60
40289;DHT22;28991;52.028;5.526;2023-07-02T00:03:38;24.80;51.60
40289;DHT22;28991;52.028;5.526;2023-07-02T00:06:04;24.90;52.30
40289;DHT22;28991;52.028;5.526;2023-07-02T00:08:29;24.80;51.70
40289;DHT22;28991;52.028;5.526;2023-07-02T00:10:55;24.80;51.70
40289;DHT22;28991;52.028;5.526;2023-07-02T00:13:21;24.80;51.60
40289;DHT22;28991;52.028;5.526;2023-07-02T00:15:47;24.80;51.70
40289;DHT22;28991;52.028;5.526;2023-07-02T00:18:12;24.80;51.70
40289;DHT22;28991;52.028;5.526;2023-07-02T00:20:44;24.80;51.70
40289;DHT22;28991;52.028;5.526;2023-07-02T00:23:10;24.80;51.70
40289;DHT22;28991;52.028;5.526;2023-07-02T00:25:38;24.80;51.70
40289;DHT22;28991;52.028;5.526;2023-07-02T00:28:04;24.70;51.70
40289;DHT22;28991;52.028;5.526;2023-07-02T00:30:30;24.70;51.60
40289;DHT22;28991;52.028;5.526;2023-07-02T00:32:55;24.80;51.70
40289;DHT22;28991;52.028;5.526;2023-07-02T00:35:21;24.80;51.70
40289;DHT22;28991;52.028;5.526;2023-07-02T00:37:48;24.80;51.80
40289;DHT22;28991;52.028;5.526;2023-07-02T00:40:14;24.70;51.70
40289;DHT22;28991;52.028;5.526;2023-07-02T00:42:39;24.70;51.70
40289;DHT22;28991;52.028;5.526;2023-07-02T00:45:05;24.70;51.70
40289;DHT22;28991;52.028;5.526;2023-07-02T00:47:35;24.80;51.80
40289;DHT22;28991;52.028;5.526;2023-07-02T00:50:02;24.70;51.70
40289;DHT22;28991;52.028;5.526;2023-07-02T00:52:28;24.70;51.70
40289;DHT22;28991;52.028;5.526;2023-07-02T00:54:53;24.70;51.80
40289;DHT22;28991;52.028;5.526;2023-07-02T00:57:20;24.70;51.80
40289;DHT22;28991;52.028;5.526;2023-07-02T00:59:45;24.70;51.80
40289;DHT22;28991;52.028;5.526;2023-07-02T01:02:11;24.80;51.90
40289;DHT22;28991;52.028;5.526;2023-07-02T01:04:38;24.70;51.80
40289;DHT22;28991;52.028;5.526;2023-07-02T01:07:04;24.70;51.80
40289;DHT22;28991;52.028;5.526;2023-07-02T01:09:34;24.70;51.80
40289;DHT22;28991;52.028;5.526;2023-07-02T01:12:04;24.70;51.80
40289;DHT22;28991;52.028;5.526;2023-07-02T01:14:42;24.70;51.90
40289;DHT22;28991;52.028;5.526;2023-07-02T01:17:09;24.70;51.90
40289;DHT22;28991;52.028;5.526;2023-07-02T01:22:18;24.70;51.90
40289;DHT22;28991;52.028;5.526;2023-07-02T01:24:45;24.70;51.90
40289;DHT22;28991;52.028;5.526;2023-07-02T01:27:12;24.70;52.00
40289;DHT22;28991;52.028;5.526;2023-07-02T01:29:38;24.70;52.00
40289;DHT22;28991;52.028;5.526;2023-07-02T01:32:04;24.70;52.00
40289;DHT22;28991;52.028;5.526;2023-07-02T01:34:30;24.70;52.00
40289;DHT22;28991;52.028;5.526;2023-07-02T01:36:56;24.70;52.00
40289;DHT22;28991;52.028;5.526;2023-07-02T01:39:21;24.70;52.00
40289;DHT22;28991;52.028;5.526;2023-07-02T01:44:15;24.60;52.00
40289;DHT22;28991;52.028;5.526;2023-07-02T01:46:41;24.50;51.90
40289;DHT22;28991;52.028;5.526;2023-07-02T01:49:07;24.70;52.10
40289;DHT22;28991;52.028;5.526;2023-07-02T01:51:33;24.70;52.00
40289;DHT22;28991;52.028;5.526;2023-07-02T01:53:59;24.70;52.00
40289;DHT22;28991;52.028;5.526;2023-07-02T01:56:25;24.70;52.00
40289;DHT22;28991;52.028;5.526;2023-07-02T01:58:52;24.70;52.10
40289;DHT22;28991;52.028;5.526;2023-07-02T02:01:18;24.70;52.10
40289;DHT22;28991;52.028;5.526;2023-07-02T02:03:44;24.70;52.10
40289;DHT22;28991;52.028;5.526;2023-07-02T02:06:09;24.70;52.10
40289;DHT22;28991;52.028;5.526;2023-07-02T02:08:35;24.70;52.10
40289;DHT22;28991;52.028;5.526;2023-07-02T02:11:00;24.70;52.10
40289;DHT22;28991;52.028;5.526;2023-07-02T02:13:26;24.70;52.10
40289;DHT22;28991;52.028;5.526;2023-07-02T02:15:53;24.60;52.10
40289;DHT22;28991;52.028;5.526;2023-07-02T02:18:19;24.60;52.10
40289;DHT22;28991;52.028;5.526;2023-07-02T02:20:44;24.60;52.10
40289;DHT22;28991;52.028;5.526;2023-07-02T02:23:10;24.60;52.10
40289;DHT22;28991;52.028;5.526;2023-07-02T02:25:36;24.60;52.10
40289;DHT22;28991;52.028;5.526;2023-07-02T02:28:02;24.60;52.10
40289;DHT22;28991;52.028;5.526;2023-07-02T02:30:27;24.60;52.20
40289;DHT22;28991;52.028;5.526;2023-07-02T02:32:53;24.60;52.20
40289;DHT22;28991;52.028;5.526;2023-07-02T02:35:18;24.60;52.20
40289;DHT22;28991;52.028;5.526;2023-07-02T02:37:44;24.60;52.20
40289;DHT22;28991;52.028;5.526;2023-07-02T02:40:10;24.60;52.20
40289;DHT22;28991;52.028;5.526;2023-07-02T02:42:36;24.60;52.20
40289;DHT22;28991;52.028;5.526;2023-07-02T02:45:02;24.60;52.20
40289;DHT22;28991;52.028;5.526;2023-07-02T02:47:28;24.60;52.20
40289;DHT22;28991;52.028;5.526;2023-07-02T02:49:54;24.60;52.30
40289;DHT22;28991;52.028;5.526;2023-07-02T02:52:19;24.60;52.20
40289;DHT22;28991;52.028;5.526;2023-07-02T02:54:45;24.60;52.20
40289;DHT22;28991;52.028;5.526;2023-07-02T02:57:11;24.60;52.30
40289;DHT22;28991;52.028;5.526;2023-07-02T02:59:37;24.50;52.20
40289;DHT22;28991;52.028;5.526;2023-07-02T03:02:03;24.60;52.30
40289;DHT22;28991;52.028;5.526;2023-07-02T03:04:29;24.50;52.20
40289;DHT22;28991;52.028;5.526;2023-07-02T03:06:54;24.60;52.30
40289;DHT22;28991;52.028;5.526;2023-07-02T03:09:21;24.60;52.30
40289;DHT22;28991;52.028;5.526;2023-07-02T03:11:46;24.60;52.30
40289;DHT22;28991;52.028;5.526;2023-07-02T03:14:13;24.60;52.30
40289;DHT22;28991;52.028;5.526;2023-07-02T03:16:39;24.60;52.30
40289;DHT22;28991;52.028;5.526;2023-07-02T03:19:04;24.60;52.30
40289;DHT22;28991;52.028;5.526;2023-07-02T03:21:30;24.50;52.30
40289;DHT22;28991;52.028;5.526;2023-07-02T03:23:55;24.50;52.30
40289;DHT22;28991;52.028;5.526;2023-07-02T03:26:21;24.50;52.30
40289;DHT22;28991;52.028;5.526;2023-07-02T03:28:48;24.60;52.30
40289;DHT22;28991;52.028;5.526;2023-07-02T03:31:14;24.50;52.30
40289;DHT22;28991;52.028;5.526;2023-07-02T03:33:40;24.60;52.40
40289;DHT22;28991;52.028;5.526;2023-07-02T03:36:05;24.50;52.30
40289;DHT22;28991;52.028;5.526;2023-07-02T03:38:32;24.50;52.30
40289;DHT22;28991;52.028;5.526;2023-07-02T03:40:57;24.50;52.30
40289;DHT22;28991;52.028;5.526;2023-07-02T03:43:23;24.60;52.40
40289;DHT22;28991;52.028;5.526;2023-07-02T03:45:51;24.50;52.30
40289;DHT22;28991;52.028;5.526;2023-07-02T03:48:17;24.50;52.30
40289;DHT22;28991;52.028;5.526;2023-07-02T03:50:42;24.50;52.30
40289;DHT22;28991;52.028;5.526;2023-07-02T03:53:08;24.50;52.30
40289;DHT22;28991;52.028;5.526;2023-07-02T03:55:34;24.50;52.20
40289;DHT22;28991;52.028;5.526;2023-07-02T03:57:59;24.50;52.20
40289;DHT22;28991;52.028;5.526;2023-07-02T04:00:25;24.60;52.30
40289;DHT22;28991;52.028;5.526;2023-07-02T04:02:50;24.60;52.30
40289;DHT22;28991;52.028;5.526;2023-07-02T04:05:16;24.60;52.30
40289;DHT22;28991;52.028;5.526;2023-07-02T04:07:41;24.60;52.20
40289;DHT22;28991;52.028;5.526;2023-07-02T04:10:07;24.60;52.10
40289;DHT22;28991;52.028;5.526;2023-07-02T04:12:33;24.70;52.10
40289;DHT22;28991;52.028;5.526;2023-07-02T04:14:58;24.70;52.10
40289;DHT22;28991;52.028;5.526;2023-07-02T04:17:24;24.60;51.90
40289;DHT22;28991;52.028;5.526;2023-07-02T04:19:53;24.70;52.00
40289;DHT22;28991;52.028;5.526;2023-07-02T04:22:19;24.70;51.90
40289;DHT22;28991;52.028;5.526;2023-07-02T04:24:44;24.70;51.90
40289;DHT22;28991;52.028;5.526;2023-07-02T04:27:10;24.80;51.80
40289;DHT22;28991;52.028;5.526;2023-07-02T04:29:36;24.90;51.80
40289;DHT22;28991;52.028;5.526;2023-07-02T04:32:02;24.90;51.70
40289;DHT22;28991;52.028;5.526;2023-07-02T04:34:27;25.00;51.60
40289;DHT22;28991;52.028;5.526;2023-07-02T04:36:53;25.10;51.40
40289;DHT22;28991;52.028;5.526;2023-07-02T04:39:19;25.20;51.30
40289;DHT22;28991;52.028;5.526;2023-07-02T04:41:44;25.30;51.10
40289;DHT22;28991;52.028;5.526;2023-07-02T04:44:10;25.30;51.00
40289;DHT22;28991;52.028;5.526;2023-07-02T04:46:36;25.30;51.00
40289;DHT22;28991;52.028;5.526;2023-07-02T04:49:01;25.20;51.10
40289;DHT22;28991;52.028;5.526;2023-07-02T04:51:27;25.10;51.10
40289;DHT22;28991;52.028;5.526;2023-07-02T04:53:52;25.10;51.30
40289;DHT22;28991;52.028;5.526;2023-07-02T04:56:18;25.10;51.50
40289;DHT22;28991;52.028;5.526;2023-07-02T04:58:43;24.90;51.40
40289;DHT22;28991;52.028;5.526;2023-07-02T05:01:09;24.90;51.50
40289;DHT22;28991;52.028;5.526;2023-07-02T05:03:36;24.90;51.60
40289;DHT22;28991;52.028;5.526;2023-07-02T05:06:02;24.90;51.70
40289;DHT22;28991;52.028;5.526;2023-07-02T05:08:28;24.90;51.80
40289;DHT22;28991;52.028;5.526;2023-07-02T05:10:53;24.80;51.80
40289;DHT22;28991;52.028;5.526;2023-07-02T05:13:19;24.80;51.90
40289;DHT22;28991;52.028;5.526;2023-07-02T05:15:44;24.70;51.80
40289;DHT22;28991;52.028;5.526;2023-07-02T05:18:10;24.70;51.90
40289;DHT22;28991;52.028;5.526;2023-07-02T05:20:36;24.70;51.90
40289;DHT22;28991;52.028;5.526;2023-07-02T05:23:01;24.70;52.00
40289;DHT22;28991;52.028;5.526;2023-07-02T05:25:27;24.70;52.00
40289;DHT22;28991;52.028;5.526;2023-07-02T05:27:52;24.70;52.00
40289;DHT22;28991;52.028;5.526;2023-07-02T05:30:18;24.70;52.00
40289;DHT22;28991;52.028;5.526;2023-07-02T05:32:44;24.70;52.00
40289;DHT22;28991;52.028;5.526;2023-07-02T05:35:09;24.60;52.00
40289;DHT22;28991;52.028;5.526;2023-07-02T05:37:35;24.60;52.00
40289;DHT22;28991;52.028;5.526;2023-07-02T05:40:00;24.60;52.00
40289;DHT22;28991;52.028;5.526;2023-07-02T05:42:26;24.70;52.10
40289;DHT22;28991;52.028;5.526;2023-07-02T05:44:51;24.50;52.00
40289;DHT22;28991;52.028;5.526;2023-07-02T05:47:17;24.60;52.00
40289;DHT22;28991;52.028;5.526;2023-07-02T05:49:43;24.60;52.00
40289;DHT22;28991;52.028;5.526;2023-07-02T05:52:08;24.70;52.10
40289;DHT22;28991;52.028;5.526;2023-07-02T05:54:34;24.70;52.10
40289;DHT22;28991;52.028;5.526;2023-07-02T05:56:59;24.60;52.00
40289;DHT22;28991;52.028;5.526;2023-07-02T05:59:25;24.60;52.00
40289;DHT22;28991;52.028;5.526;2023-07-02T06:01:50;24.70;52.00
40289;DHT22;28991;52.028;5.526;2023-07-02T06:04:16;24.70;52.00
40289;DHT22;28991;52.028;5.526;2023-07-02T06:06:42;24.70;52.00
40289;DHT22;28991;52.028;5.526;2023-07-02T06:09:07;24.60;51.90
40289;DHT22;28991;52.028;5.526;2023-07-02T06:11:33;24.70;51.90
40289;DHT22;28991;52.028;5.526;2023-07-02T06:13:58;24.70;51.90
40289;DHT22;28991;52.028;5.526;2023-07-02T06:16:25;24.70;51.80
40289;DHT22;28991;52.028;5.526;2023-07-02T06:18:51;24.70;51.80
40289;DHT22;28991;52.028;5.526;2023-07-02T06:21:16;24.80;51.80
40289;DHT22;28991;52.028;5.526;2023-07-02T06:23:43;24.80;51.80
40289;DHT22;28991;52.028;5.526;2023-07-02T06:26:08;24.70;51.70
40289;DHT22;28991;52.028;5.526;2023-07-02T06:28:34;24.80;51.70
40289;DHT22;28991;52.028;5.526;2023-07-02T06:31:00;24.70;51.70
40289;DHT22;28991;52.028;5.526;2023-07-02T06:33:25;24.80;51.70
40289;DHT22;28991;52.028;5.526;2023-07-02T06:35:51;24.80;51.70
40289;DHT22;28991;52.028;5.526;2023-07-02T06:38:16;24.70;51.60
40289;DHT22;28991;52.028;5.526;2023-07-02T06:40:42;24.80;51.50
40289;DHT22;28991;52.028;5.526;2023-07-02T06:43:07;24.80;51.30
40289;DHT22;28991;52.028;5.526;2023-07-02T06:45:33;24.80;51.00
40289;DHT22;28991;52.028;5.526;2023-07-02T06:47:58;24.70;50.90
40289;DHT22;28991;52.028;5.526;2023-07-02T06:50:24;24.70;50.60
40289;DHT22;28991;52.028;5.526;2023-07-02T06:52:50;24.70;50.40
40289;DHT22;28991;52.028;5.526;2023-07-02T06:55:15;24.60;50.20
40289;DHT22;28991;52.028;5.526;2023-07-02T06:57:45;24.50;49.90
40289;DHT22;28991;52.028;5.526;2023-07-02T07:00:14;24.50;49.80
40289;DHT22;28991;52.028;5.526;2023-07-02T07:02:41;24.50;49.70
40289;DHT22;28991;52.028;5.526;2023-07-02T07:05:06;24.40;49.50
40289;DHT22;28991;52.028;5.526;2023-07-02T07:07:32;24.40;49.50
40289;DHT22;28991;52.028;5.526;2023-07-02T07:09:58;24.40;49.50
40289;DHT22;28991;52.028;5.526;2023-07-02T07:12:23;24.30;49.50
40289;DHT22;28991;52.028;5.526;2023-07-02T07:14:49;24.20;49.30
40289;DHT22;28991;52.028;5.526;2023-07-02T07:17:14;24.30;49.30
40289;DHT22;28991;52.028;5.526;2023-07-02T07:19:40;24.20;49.20
40289;DHT22;28991;52.028;5.526;2023-07-02T07:22:05;24.20;49.30
40289;DHT22;28991;52.028;5.526;2023-07-02T07:24:31;24.40;49.40
40289;DHT22;28991;52.028;5.526;2023-07-02T07:26:57;24.60;48.90
40289;DHT22;28991;52.028;5.526;2023-07-02T07:29:22;24.80;48.20
40289;DHT22;28991;52.028;5.526;2023-07-02T07:31:48;25.10;47.70
40289;DHT22;28991;52.028;5.526;2023-07-02T07:34:13;25.30;47.20
40289;DHT22;28991;52.028;5.526;2023-07-02T07:36:39;25.50;46.50
40289;DHT22;28991;52.028;5.526;2023-07-02T07:39:04;25.70;46.00
40289;DHT22;28991;52.028;5.526;2023-07-02T07:41:30;25.80;45.50
40289;DHT22;28991;52.028;5.526;2023-07-02T07:43:56;26.10;45.10
40289;DHT22;28991;52.028;5.526;2023-07-02T07:46:21;26.20;44.60
40289;DHT22;28991;52.028;5.526;2023-07-02T07:48:47;26.10;44.30
40289;DHT22;28991;52.028;5.526;2023-07-02T07:51:12;26.10;44.30
40289;DHT22;28991;52.028;5.526;2023-07-02T07:53:38;26.00;44.40
40289;DHT22;28991;52.028;5.526;2023-07-02T07:56:05;25.90;44.40
40289;DHT22;28991;52.028;5.526;2023-07-02T07:58:30;25.90;44.90
40289;DHT22;28991;52.028;5.526;2023-07-02T08:00:57;25.80;44.20
40289;DHT22;28991;52.028;5.526;2023-07-02T08:03:23;25.70;44.30
40289;DHT22;28991;52.028;5.526;2023-07-02T08:05:49;25.60;44.30
40289;DHT22;28991;52.028;5.526;2023-07-02T08:08:14;25.40;44.30
40289;DHT22;28991;52.028;5.526;2023-07-02T08:10:40;25.30;44.40
40289;DHT22;28991;52.028;5.526;2023-07-02T08:13:06;25.20;44.40
40289;DHT22;28991;52.028;5.526;2023-07-02T08:15:33;25.10;44.30
40289;DHT22;28991;52.028;5.526;2023-07-02T08:17:59;25.00;44.30
40289;DHT22;28991;52.028;5.526;2023-07-02T08:20:25;24.80;44.30
40289;DHT22;28991;52.028;5.526;2023-07-02T08:22:51;24.80;44.30
40289;DHT22;28991;52.028;5.526;2023-07-02T08:25:19;24.70;44.20
40289;DHT22;28991;52.028;5.526;2023-07-02T08:27:47;24.70;44.30
40289;DHT22;28991;52.028;5.526;2023-07-02T08:30:13;24.60;44.30
40289;DHT22;28991;52.028;5.526;2023-07-02T08:32:38;24.60;44.40
40289;DHT22;28991;52.028;5.526;2023-07-02T08:35:04;24.50;44.30
40289;DHT22;28991;52.028;5.526;2023-07-02T08:37:29;24.50;44.30
40289;DHT22;28991;52.028;5.526;2023-07-02T08:39:55;24.50;44.30
40289;DHT22;28991;52.028;5.526;2023-07-02T08:42:21;24.50;44.10
40289;DHT22;28991;52.028;5.526;2023-07-02T08:44:47;24.50;43.90
40289;DHT22;28991;52.028;5.526;2023-07-02T08:47:13;24.70;43.80
40289;DHT22;28991;52.028;5.526;2023-07-02T08:49:40;24.70;43.40
40289;DHT22;28991;52.028;5.526;2023-07-02T08:52:06;24.80;43.20
40289;DHT22;28991;52.028;5.526;2023-07-02T08:54:32;24.80;43.00
40289;DHT22;28991;52.028;5.526;2023-07-02T08:56:58;24.80;43.00
40289;DHT22;28991;52.028;5.526;2023-07-02T08:59:23;24.80;42.90
40289;DHT22;28991;52.028;5.526;2023-07-02T09:01:52;24.70;42.90
40289;DHT22;28991;52.028;5.526;2023-07-02T09:04:22;24.70;42.90
40289;DHT22;28991;52.028;5.526;2023-07-02T09:07:10;24.60;42.90
40289;DHT22;28991;52.028;5.526;2023-07-02T09:09:46;24.60;42.80
40289;DHT22;28991;52.028;5.526;2023-07-02T09:12:25;24.50;42.60
40289;DHT22;28991;52.028;5.526;2023-07-02T09:15:09;24.50;42.50
40289;DHT22;28991;52.028;5.526;2023-07-02T09:17:36;24.40;42.50
40289;DHT22;28991;52.028;5.526;2023-07-02T09:20:04;24.40;42.50
40289;DHT22;28991;52.028;5.526;2023-07-02T09:22:32;24.40;42.50
40289;DHT22;28991;52.028;5.526;2023-07-02T09:24:59;24.30;42.30
40289;DHT22;28991;52.028;5.526;2023-07-02T09:30:15;24.30;42.00
40289;DHT22;28991;52.028;5.526;2023-07-02T09:32:44;24.20;42.00
40289;DHT22;28991;52.028;5.526;2023-07-02T09:35:10;24.20;42.00
40289;DHT22;28991;52.028;5.526;2023-07-02T09:37:36;24.20;41.80
40289;DHT22;28991;52.028;5.526;2023-07-02T09:40:02;24.20;41.80
40289;DHT22;28991;52.028;5.526;2023-07-02T09:42:33;24.20;41.80
40289;DHT22;28991;52.028;5.526;2023-07-02T09:45:02;24.20;41.80
40289;DHT22;28991;52.028;5.526;2023-07-02T09:47:29;24.20;41.70
40289;DHT22;28991;52.028;5.526;2023-07-02T09:49:59;24.20;41.60
40289;DHT22;28991;52.028;5.526;2023-07-02T09:52:26;24.30;41.50
40289;DHT22;28991;52.028;5.526;2023-07-02T09:54:52;24.40;41.40
40289;DHT22;28991;52.028;5.526;2023-07-02T09:57:18;24.40;41.30
40289;DHT22;28991;52.028;5.526;2023-07-02T09:59:44;24.50;41.00
40289;DHT22;28991;52.028;5.526;2023-07-02T10:02:10;24.50;40.90
40289;DHT22;28991;52.028;5.526;2023-07-02T10:04:45;24.40;40.70
40289;DHT22;28991;52.028;5.526;2023-07-02T10:07:12;24.50;40.50
40289;DHT22;28991;52.028;5.526;2023-07-02T10:09:43;24.50;40.40
40289;DHT22;28991;52.028;5.526;2023-07-02T10:12:16;24.60;40.10
40289;DHT22;28991;52.028;5.526;2023-07-02T10:14:43;24.70;39.90
40289;DHT22;28991;52.028;5.526;2023-07-02T10:17:09;24.70;39.60
40289;DHT22;28991;52.028;5.526;2023-07-02T10:19:34;24.80;39.20
40289;DHT22;28991;52.028;5.526;2023-07-02T10:22:01;24.90;39.00
40289;DHT22;28991;52.028;5.526;2023-07-02T10:24:27;24.90;38.80
40289;DHT22;28991;52.028;5.526;2023-07-02T10:27:00;24.90;38.70
40289;DHT22;28991;52.028;5.526;2023-07-02T10:29:27;25.00;38.50
40289;DHT22;28991;52.028;5.526;2023-07-02T10:31:55;25.00;38.30
40289;DHT22;28991;52.028;5.526;2023-07-02T10:34:35;25.00;38.10
40289;DHT22;28991;52.028;5.526;2023-07-02T10:37:01;25.10;38.10
40289;DHT22;28991;52.028;5.526;2023-07-02T10:39:29;25.00;38.00
40289;DHT22;28991;52.028;5.526;2023-07-02T10:42:07;25.10;37.70
40289;DHT22;28991;52.028;5.526;2023-07-02T10:44:33;25.10;37.70
40289;DHT22;28991;52.028;5.526;2023-07-02T10:46:59;25.10;37.80
40289;DHT22;28991;52.028;5.526;2023-07-02T10:49:31;25.10;37.60
40289;DHT22;28991;52.028;5.526;2023-07-02T10:52:00;25.10;37.30
40289;DHT22;28991;52.028;5.526;2023-07-02T10:54:37;25.10;37.30
40289;DHT22;28991;52.028;5.526;2023-07-02T10:57:03;25.10;37.00
40289;DHT22;28991;52.028;5.526;2023-07-02T10:59:29;25.10;37.00
40289;DHT22;28991;52.028;5.526;2023-07-02T11:01:55;25.10;37.20
40289;DHT22;28991;52.028;5.526;2023-07-02T11:04:24;25.10;37.30
40289;DHT22;28991;52.028;5.526;2023-07-02T11:06:49;25.10;37.70
40289;DHT22;28991;52.028;5.526;2023-07-02T11:09:18;25.10;37.80
40289;DHT22;28991;52.028;5.526;2023-07-02T11:11:58;25.20;37.90
40289;DHT22;28991;52.028;5.526;2023-07-02T11:14:34;25.20;37.90
40289;DHT22;28991;52.028;5.526;2023-07-02T11:17:04;25.30;38.00
40289;DHT22;28991;52.028;5.526;2023-07-02T11:19:34;25.20;37.90
40289;DHT22;28991;52.028;5.526;2023-07-02T11:22:01;25.30;38.10
40289;DHT22;28991;52.028;5.526;2023-07-02T11:26:54;25.40;38.20
40289;DHT22;28991;52.028;5.526;2023-07-02T11:29:19;25.40;38.20
40289;DHT22;28991;52.028;5.526;2023-07-02T11:31:45;25.40;38.90
40289;DHT22;28991;52.028;5.526;2023-07-02T11:34:15;25.40;38.30
40289;DHT22;28991;52.028;5.526;2023-07-02T11:36:40;25.40;38.30
40289;DHT22;28991;52.028;5.526;2023-07-02T11:39:06;25.50;38.40
40289;DHT22;28991;52.028;5.526;2023-07-02T11:41:39;25.50;38.40
40289;DHT22;28991;52.028;5.526;2023-07-02T11:44:06;25.50;38.40
40289;DHT22;28991;52.028;5.526;2023-07-02T11:46:32;25.50;38.60
40289;DHT22;28991;52.028;5.526;2023-07-02T11:48:57;25.50;38.60
40289;DHT22;28991;52.028;5.526;2023-07-02T11:51:23;25.50;38.70
40289;DHT22;28991;52.028;5.526;2023-07-02T11:53:48;25.40;38.80
40289;DHT22;28991;52.028;5.526;2023-07-02T11:56:14;25.30;38.80
40289;DHT22;28991;52.028;5.526;2023-07-02T11:58:41;25.30;38.90
40289;DHT22;28991;52.028;5.526;2023-07-02T12:01:07;25.30;38.90
40289;DHT22;28991;52.028;5.526;2023-07-02T12:03:33;25.40;39.00
40289;DHT22;28991;52.028;5.526;2023-07-02T12:05:58;25.30;39.00
40289;DHT22;28991;52.028;5.526;2023-07-02T12:08:24;25.40;39.10
40289;DHT22;28991;52.028;5.526;2023-07-02T12:10:50;25.30;39.00
40289;DHT22;28991;52.028;5.526;2023-07-02T12:13:15;25.30;39.10
40289;DHT22;28991;52.028;5.526;2023-07-02T12:15:41;25.30;39.20
40289;DHT22;28991;52.028;5.526;2023-07-02T12:18:08;25.30;39.30
40289;DHT22;28991;52.028;5.526;2023-07-02T12:20:33;25.30;39.40
40289;DHT22;28991;52.028;5.526;2023-07-02T12:22:59;25.20;39.40
40289;DHT22;28991;52.028;5.526;2023-07-02T12:25:24;25.20;40.10
40289;DHT22;28991;52.028;5.526;2023-07-02T12:27:50;25.20;39.60
40289;DHT22;28991;52.028;5.526;2023-07-02T12:30:16;25.10;39.60
40289;DHT22;28991;52.028;5.526;2023-07-02T12:32:43;25.20;39.70
40289;DHT22;28991;52.028;5.526;2023-07-02T12:35:09;25.20;39.70
40289;DHT22;28991;52.028;5.526;2023-07-02T12:37:35;25.20;39.70
40289;DHT22;28991;52.028;5.526;2023-07-02T12:40:00;25.20;39.60
40289;DHT22;28991;52.028;5.526;2023-07-02T12:42:27;25.30;39.70
40289;DHT22;28991;52.028;5.526;2023-07-02T12:44:52;25.20;39.60
40289;DHT22;28991;52.028;5.526;2023-07-02T12:47:18;25.20;39.70
40289;DHT22;28991;52.028;5.526;2023-07-02T12:49:43;25.30;39.70
40289;DHT22;28991;52.028;5.526;2023-07-02T12:52:09;25.30;39.70
40289;DHT22;28991;52.028;5.526;2023-07-02T12:54:34;25.30;39.80
40289;DHT22;28991;52.028;5.526;2023-07-02T12:57:00;25.30;39.80
40289;DHT22;28991;52.028;5.526;2023-07-02T12:59:26;25.20;39.80
40289;DHT22;28991;52.028;5.526;2023-07-02T13:01:51;25.30;39.90
40289;DHT22;28991;52.028;5.526;2023-07-02T13:04:17;25.30;39.90
40289;DHT22;28991;52.028;5.526;2023-07-02T13:06:42;25.30;39.90
40289;DHT22;28991;52.028;5.526;2023-07-02T13:09:10;25.30;39.90
40289;DHT22;28991;52.028;5.526;2023-07-02T13:11:35;25.30;39.90
40289;DHT22;28991;52.028;5.526;2023-07-02T13:14:01;25.30;40.00
40289;DHT22;28991;52.028;5.526;2023-07-02T13:16:27;25.30;40.00
40289;DHT22;28991;52.028;5.526;2023-07-02T13:18:53;25.30;40.00
40289;DHT22;28991;52.028;5.526;2023-07-02T13:21:20;25.30;40.00
40289;DHT22;28991;52.028;5.526;2023-07-02T13:23:46;25.30;40.00
40289;DHT22;28991;52.028;5.526;2023-07-02T13:26:12;25.30;40.10
40289;DHT22;28991;52.028;5.526;2023-07-02T13:28:37;25.30;40.10
40289;DHT22;28991;52.028;5.526;2023-07-02T13:31:03;25.30;40.10
40289;DHT22;28991;52.028;5.526;2023-07-02T13:33:28;25.30;40.10
40289;DHT22;28991;52.028;5.526;2023-07-02T13:35:56;25.30;40.20
40289;DHT22;28991;52.028;5.526;2023-07-02T13:38:22;25.30;40.20
40289;DHT22;28991;52.028;5.526;2023-07-02T13:40:47;25.30;40.20
40289;DHT22;28991;52.028;5.526;2023-07-02T13:43:13;25.30;40.20
40289;DHT22;28991;52.028;5.526;2023-07-02T13:45:39;25.30;40.30
40289;DHT22;28991;52.028;5.526;2023-07-02T13:48:05;25.30;40.30
40289;DHT22;28991;52.028;5.526;2023-07-02T13:50:31;25.30;40.30
40289;DHT22;28991;52.028;5.526;2023-07-02T13:52:56;25.30;40.30
40289;DHT22;28991;52.028;5.526;2023-07-02T13:55:22;25.30;40.40
40289;DHT22;28991;52.028;5.526;2023-07-02T13:57:55;25.30;40.40
40289;DHT22;28991;52.028;5.526;2023-07-02T14:00:25;25.30;40.40
40289;DHT22;28991;52.028;5.526;2023-07-02T14:02:51;25.30;40.50
40289;DHT22;28991;52.028;5.526;2023-07-02T14:05:17;25.30;40.50
40289;DHT22;28991;52.028;5.526;2023-07-02T14:07:42;25.30;40.50
40289;DHT22;28991;52.028;5.526;2023-07-02T14:10:09;25.30;40.50
40289;DHT22;28991;52.028;5.526;2023-07-02T14:12:34;25.30;40.50
40289;DHT22;28991;52.028;5.526;2023-07-02T14:15:00;25.30;40.50
40289;DHT22;28991;52.028;5.526;2023-07-02T14:17:25;25.30;40.60
40289;DHT22;28991;52.028;5.526;2023-07-02T14:19:51;25.30;40.60
40289;DHT22;28991;52.028;5.526;2023-07-02T14:22:16;25.30;40.60
40289;DHT22;28991;52.028;5.526;2023-07-02T14:24:42;25.30;40.60
40289;DHT22;28991;52.028;5.526;2023-07-02T14:27:08;25.30;40.60
40289;DHT22;28991;52.028;5.526;2023-07-02T14:29:33;25.30;40.60
40289;DHT22;28991;52.028;5.526;2023-07-02T14:31:59;25.30;40.70
40289;DHT22;28991;52.028;5.526;2023-07-02T14:34:25;25.30;40.70
40289;DHT22;28991;52.028;5.526;2023-07-02T14:36:50;25.30;40.70
40289;DHT22;28991;52.028;5.526;2023-07-02T14:39:16;25.30;40.80
40289;DHT22;28991;52.028;5.526;2023-07-02T14:41:41;25.30;40.80
40289;DHT22;28991;52.028;5.526;2023-07-02T14:44:07;25.30;40.80
40289;DHT22;28991;52.028;5.526;2023-07-02T14:46:33;25.30;40.80
40289;DHT22;28991;52.028;5.526;2023-07-02T14:48:58;25.30;40.80
40289;DHT22;28991;52.028;5.526;2023-07-02T14:51:24;25.30;41.50
40289;DHT22;28991;52.028;5.526;2023-07-02T14:53:50;25.30;40.90
40289;DHT22;28991;52.028;5.526;2023-07-02T14:56:16;25.30;40.90
40289;DHT22;28991;52.028;5.526;2023-07-02T14:58:43;25.30;40.90
40289;DHT22;28991;52.028;5.526;2023-07-02T15:01:09;25.30;40.90
40289;DHT22;28991;52.028;5.526;2023-07-02T15:03:34;25.30;41.00
40289;DHT22;28991;52.028;5.526;2023-07-02T15:06:12;25.30;41.00
40289;DHT22;28991;52.028;5.526;2023-07-02T15:08:38;25.30;41.00
40289;DHT22;28991;52.028;5.526;2023-07-02T15:11:04;25.30;41.00
40289;DHT22;28991;52.028;5.526;2023-07-02T15:13:30;25.20;41.00
40289;DHT22;28991;52.028;5.526;2023-07-02T15:15:55;25.30;41.10
40289;DHT22;28991;52.028;5.526;2023-07-02T15:18:21;25.30;41.20
40289;DHT22;28991;52.028;5.526;2023-07-02T15:20:50;25.20;41.10
40289;DHT22;28991;52.028;5.526;2023-07-02T15:23:16;25.30;41.20
40289;DHT22;28991;52.028;5.526;2023-07-02T15:25:42;25.20;41.20
40289;DHT22;28991;52.028;5.526;2023-07-02T15:28:07;25.20;41.20
40289;DHT22;28991;52.028;5.526;2023-07-02T15:30:37;25.20;41.20
40289;DHT22;28991;52.028;5.526;2023-07-02T15:33:03;25.20;41.20
40289;DHT22;28991;52.028;5.526;2023-07-02T15:35:28;25.20;41.30